Time;durP1;ratioP1;P1;durP2;ratioP2;P2;SDS_P1;SDS_P2;PMS_P1;PMS_P2;Temp;Humidity;BMP_temperature;BMP_pressure;BME280_temperature;BME280_humidity;BME280_pressure;Samples;Min_cycle;Max_cycle;Signal;HPM_P1;HPM_P2
2021/11/21 00:00:01;;;;;;;16.90;15.02;;;;;;;;;;5053433;28;20593;-75
2021/11/21 00:02:30;;;;;;;20.08;15.25;;;;;;;;;;5069837;28;20198;-75
2021/11/21 00:04:57;;;;;;;18.10;15.48;;;;;;;;;;5056716;28;20195;-75
2021/11/21 00:07:24;;;;;;;19.80;15.25;;;;;;;;;;5063713;28;20217;-75
2021/11/21 00:09:51;;;;;;;18.42;15.27;;;;;;;;;;5067058;28;20584;-75
2021/11/21 00:12:18;;;;;;;18.70;14.60;;;;;;;;;;5062210;28;20194;-74
2021/11/21 00:14:45;;;;;;;18.55;15.40;;;;;;;;;;5057559;28;20563;-73
2021/11/21 00:17:12;;;;;;;20.90;16.13;;;;;;;;;;5056308;28;20190;-73
2021/11/21 00:19:41;;;;;;;16.30;14.13;;;;;;;;;;5053817;28;20210;-76
2021/11/21 00:22:11;;;;;;;18.42;14.75;;;;;;;;;;5059144;28;20557;-75
2021/11/21 00:24:38;;;;;;;20.10;16.30;;;;;;;;;;5057588;28;20207;-75
2021/11/21 00:27:06;;;;;;;21.08;14.40;;;;;;;;;;5053607;28;20203;-75
2021/11/21 00:29:33;;;;;;;18.88;14.05;;;;;;;;;;5061153;28;20207;-75
2021/11/21 00:32:00;;;;;;;17.65;13.23;;;;;;;;;;5055422;28;20194;-74
2021/11/21 00:34:27;;;;;;;19.35;14.30;;;;;;;;;;5056113;28;20224;-75
2021/11/21 00:36:56;;;;;;;20.63;16.33;;;;;;;;;;5056148;28;20410;-74
2021/11/21 00:39:23;;;;;;;16.98;14.05;;;;;;;;;;5054810;28;20187;-75
2021/11/21 00:41:50;;;;;;;17.00;14.18;;;;;;;;;;5062125;28;20198;-74
2021/11/21 00:44:17;;;;;;;17.48;13.55;;;;;;;;;;5054115;28;20198;-74
2021/11/21 00:46:44;;;;;;;18.50;14.07;;;;;;;;;;5058619;28;20207;-75
2021/11/21 00:49:15;;;;;;;21.52;14.38;;;;;;;;;;5059899;28;20214;-74
2021/11/21 00:51:42;;;;;;;20.38;15.90;;;;;;;;;;5064204;28;20198;-75
2021/11/21 00:54:22;;;;;;;18.38;14.95;;;;;;;;;;5064799;28;20198;-76
2021/11/21 00:56:49;;;;;;;19.70;14.77;;;;;;;;;;5066986;28;20210;-75
2021/11/21 00:59:19;;;;;;;19.02;15.05;;;;;;;;;;5062165;28;20590;-75
2021/11/21 01:01:46;;;;;;;18.27;14.52;;;;;;;;;;5055315;28;20631;-76
2021/11/21 01:04:13;;;;;;;20.33;16.77;;;;;;;;;;5056925;28;20202;-76
2021/11/21 01:06:40;;;;;;;18.30;14.88;;;;;;;;;;5065601;28;20201;-75
2021/11/21 01:09:08;;;;;;;16.67;12.63;;;;;;;;;;5062631;28;20219;-75
2021/11/21 01:11:36;;;;;;;16.10;13.07;;;;;;;;;;5062470;28;20475;-75
2021/11/21 01:14:03;;;;;;;19.25;14.55;;;;;;;;;;5064540;28;20657;-76
2021/11/21 01:16:30;;;;;;;16.63;13.20;;;;;;;;;;5055581;28;20245;-76
2021/11/21 01:18:58;;;;;;;15.52;12.98;;;;;;;;;;5062248;28;20202;-75
2021/11/21 01:21:25;;;;;;;17.27;12.85;;;;;;;;;;5068745;28;20195;-75
2021/11/21 01:23:52;;;;;;;18.63;14.07;;;;;;;;;;5073367;28;20198;-75
2021/11/21 01:26:19;;;;;;;16.42;13.93;;;;;;;;;;5064281;28;20688;-76
2021/11/21 01:28:48;;;;;;;18.23;12.55;;;;;;;;;;5062967;28;20218;-75
2021/11/21 01:31:15;;;;;;;18.88;12.95;;;;;;;;;;5055490;28;20198;-75
2021/11/21 01:33:42;;;;;;;14.07;12.40;;;;;;;;;;5055832;28;20203;-76
2021/11/21 01:36:09;;;;;;;18.48;13.95;;;;;;;;;;5063138;28;20205;-75
2021/11/21 01:38:37;;;;;;;14.00;11.55;;;;;;;;;;5065841;28;20231;-76
2021/11/21 01:41:04;;;;;;;16.58;13.63;;;;;;;;;;5061451;28;20208;-75
2021/11/21 01:43:31;;;;;;;15.55;12.50;;;;;;;;;;5053224;28;20199;-77
2021/11/21 01:46:00;;;;;;;18.42;14.63;;;;;;;;;;5063954;28;20199;-75
2021/11/21 01:48:27;;;;;;;15.73;12.60;;;;;;;;;;5058541;28;20580;-75
2021/11/21 01:50:54;;;;;;;17.27;14.60;;;;;;;;;;5057814;28;20195;-75
2021/11/21 01:53:21;;;;;;;20.08;14.45;;;;;;;;;;5068506;28;20730;-76
2021/11/21 01:55:49;;;;;;;18.55;14.48;;;;;;;;;;5055259;28;20203;-75
2021/11/21 01:58:16;;;;;;;16.65;14.10;;;;;;;;;;5060590;28;20206;-75
2021/11/21 02:00:44;;;;;;;15.93;13.38;;;;;;;;;;5058872;28;20218;-74
2021/11/21 02:03:12;;;;;;;17.00;13.75;;;;;;;;;;5061911;28;20218;-76
2021/11/21 02:05:39;;;;;;;17.65;14.35;;;;;;;;;;5053384;28;20203;-74
2021/11/21 02:08:08;;;;;;;17.85;13.02;;;;;;;;;;5069620;28;20218;-75
2021/11/21 02:10:35;;;;;;;18.30;13.75;;;;;;;;;;5070606;28;20214;-75
2021/11/21 02:13:02;;;;;;;16.67;12.90;;;;;;;;;;5062245;28;20203;-76
2021/11/21 02:15:29;;;;;;;21.02;15.13;;;;;;;;;;5060212;28;20194;-75
2021/11/21 02:17:57;;;;;;;17.17;13.40;;;;;;;;;;5065303;28;20650;-76
2021/11/21 02:20:26;;;;;;;17.90;13.27;;;;;;;;;;5054256;28;20203;-75
2021/11/21 02:22:53;;;;;;;21.05;14.18;;;;;;;;;;5060734;28;20206;-76
2021/11/21 02:25:20;;;;;;;18.42;13.15;;;;;;;;;;5054858;28;20206;-76
2021/11/21 02:27:48;;;;;;;18.45;14.65;;;;;;;;;;5062462;28;20207;-75
2021/11/21 02:30:15;;;;;;;18.60;14.07;;;;;;;;;;5061928;28;20246;-76
2021/11/21 02:32:46;;;;;;;15.25;12.35;;;;;;;;;;5058556;28;20631;-75
2021/11/21 02:35:13;;;;;;;17.98;13.32;;;;;;;;;;5062544;28;20205;-74
2021/11/21 02:37:42;;;;;;;16.50;14.00;;;;;;;;;;5071036;28;20209;-76
2021/11/21 02:40:10;;;;;;;20.60;13.70;;;;;;;;;;5062955;28;20217;-75
2021/11/21 02:42:37;;;;;;;19.45;14.80;;;;;;;;;;5061140;28;20198;-76
2021/11/21 02:45:05;;;;;;;18.38;14.10;;;;;;;;;;5055667;28;20593;-75
2021/11/21 02:47:34;;;;;;;18.13;12.95;;;;;;;;;;5054108;28;20195;-76
2021/11/21 02:50:01;;;;;;;15.95;13.15;;;;;;;;;;5053674;28;20214;-77
2021/11/21 02:52:28;;;;;;;18.27;14.18;;;;;;;;;;5054224;28;20199;-75
2021/11/21 02:54:57;;;;;;;19.83;14.73;;;;;;;;;;5061809;28;20190;-77
2021/11/21 02:57:25;;;;;;;18.60;14.48;;;;;;;;;;5060651;28;20289;-75
2021/11/21 02:59:52;;;;;;;17.55;13.40;;;;;;;;;;5058992;28;20209;-75
2021/11/21 03:02:20;;;;;;;13.43;11.68;;;;;;;;;;5058275;28;20214;-76
2021/11/21 03:04:47;;;;;;;19.10;15.05;;;;;;;;;;5060201;28;20194;-76
2021/11/21 03:07:14;;;;;;;16.25;12.35;;;;;;;;;;5058536;28;20250;-76
2021/11/21 03:09:42;;;;;;;20.65;14.40;;;;;;;;;;5054850;28;20685;-76
2021/11/21 03:12:11;;;;;;;18.48;14.20;;;;;;;;;;5058071;28;20187;-77
2021/11/21 03:14:38;;;;;;;16.23;12.85;;;;;;;;;;5052381;28;21451;-75
2021/11/21 03:17:05;;;;;;;15.60;13.00;;;;;;;;;;5061113;28;20613;-76
2021/11/21 03:19:33;;;;;;;16.52;13.35;;;;;;;;;;5071391;28;20225;-77
2021/11/21 03:22:00;;;;;;;16.98;13.75;;;;;;;;;;5068189;28;20198;-76
2021/11/21 03:24:27;;;;;;;14.50;12.40;;;;;;;;;;5063756;28;20376;-76
2021/11/21 03:26:54;;;;;;;16.77;12.30;;;;;;;;;;5070895;28;20201;-76
2021/11/21 03:29:22;;;;;;;17.23;12.77;;;;;;;;;;5064670;28;20213;-76
2021/11/21 03:31:49;;;;;;;17.02;12.63;;;;;;;;;;5059495;28;20202;-76
2021/11/21 03:34:17;;;;;;;18.45;14.00;;;;;;;;;;5057031;28;20194;-76
2021/11/21 03:36:44;;;;;;;17.38;12.75;;;;;;;;;;5064748;28;20201;-76
2021/11/21 03:39:11;;;;;;;18.52;13.68;;;;;;;;;;5062087;28;20277;-77
2021/11/21 03:41:39;;;;;;;16.02;12.60;;;;;;;;;;5065037;28;20205;-77
2021/11/21 03:44:07;;;;;;;16.55;13.05;;;;;;;;;;5052795;28;20231;-77
2021/11/21 03:46:35;;;;;;;17.27;13.70;;;;;;;;;;5056784;28;20200;-76
2021/11/21 03:49:03;;;;;;;17.55;14.35;;;;;;;;;;5064188;28;20646;-75
2021/11/21 03:51:30;;;;;;;17.77;13.65;;;;;;;;;;5059348;28;20680;-76
2021/11/21 03:53:57;;;;;;;16.65;13.65;;;;;;;;;;5064285;28;20194;-76
2021/11/21 03:56:24;;;;;;;18.38;13.88;;;;;;;;;;5071454;28;20635;-76
2021/11/21 03:58:51;;;;;;;19.30;14.43;;;;;;;;;;5066913;28;20577;-76
2021/11/21 04:01:19;;;;;;;17.60;13.07;;;;;;;;;;5056234;28;20186;-76
2021/11/21 04:03:47;;;;;;;20.55;14.20;;;;;;;;;;5065165;28;20214;-76
2021/11/21 04:06:14;;;;;;;15.95;12.55;;;;;;;;;;5052555;28;20197;-75
2021/11/21 04:08:42;;;;;;;18.75;14.70;;;;;;;;;;5055341;28;20645;-77
2021/11/21 04:11:10;;;;;;;18.23;13.95;;;;;;;;;;5054943;28;20244;-76
2021/11/21 04:13:37;;;;;;;18.27;14.50;;;;;;;;;;5050694;28;20622;-76
2021/11/21 04:16:04;;;;;;;19.30;14.02;;;;;;;;;;5061139;28;20197;-76
2021/11/21 04:18:32;;;;;;;17.13;13.55;;;;;;;;;;5060108;28;20198;-77
2021/11/21 04:21:00;;;;;;;21.77;15.25;;;;;;;;;;5057599;28;20630;-77
2021/11/21 04:23:30;;;;;;;18.90;14.00;;;;;;;;;;5063024;28;20202;-77
2021/11/21 04:25:57;;;;;;;16.10;13.50;;;;;;;;;;5071403;28;20767;-78
2021/11/21 04:28:24;;;;;;;15.63;12.52;;;;;;;;;;5057348;28;20201;-77
2021/11/21 04:30:53;;;;;;;18.02;14.32;;;;;;;;;;5066810;28;20217;-77
2021/11/21 04:33:20;;;;;;;20.23;14.63;;;;;;;;;;5063826;28;20313;-77
2021/11/21 04:35:47;;;;;;;19.58;14.80;;;;;;;;;;5056027;28;20417;-78
2021/11/21 04:38:15;;;;;;;20.08;15.43;;;;;;;;;;5055293;28;20195;-76
2021/11/21 04:40:42;;;;;;;17.17;13.48;;;;;;;;;;5068275;28;20198;-76
2021/11/21 04:43:11;;;;;;;20.50;15.98;;;;;;;;;;5062842;28;20203;-77
2021/11/21 04:45:38;;;;;;;21.95;17.00;;;;;;;;;;5055650;28;20215;-78
2021/11/21 04:48:05;;;;;;;23.67;17.45;;;;;;;;;;5060750;28;20213;-77
2021/11/21 04:50:32;;;;;;;23.50;15.70;;;;;;;;;;5061250;28;20226;-76
2021/11/21 04:52:59;;;;;;;23.77;16.23;;;;;;;;;;5062125;28;20199;-77
2021/11/21 04:55:28;;;;;;;17.77;14.43;;;;;;;;;;5060670;28;20682;-76
2021/11/21 04:57:55;;;;;;;20.67;15.38;;;;;;;;;;5062738;28;20209;-78
2021/11/21 05:00:22;;;;;;;18.83;14.25;;;;;;;;;;5063075;28;20222;-78
2021/11/21 05:02:50;;;;;;;19.85;15.43;;;;;;;;;;5064366;28;20256;-79
2021/11/21 05:05:18;;;;;;;19.27;14.40;;;;;;;;;;5057768;28;20203;-80
2021/11/21 05:07:45;;;;;;;22.45;14.98;;;;;;;;;;5066542;28;20198;-79
2021/11/21 05:10:13;;;;;;;18.08;13.60;;;;;;;;;;5061546;28;20697;-79
2021/11/21 05:12:41;;;;;;;23.73;16.15;;;;;;;;;;5071502;28;20190;-79
2021/11/21 05:15:09;;;;;;;16.52;13.75;;;;;;;;;;5070003;28;20200;-79
2021/11/21 05:17:39;;;;;;;20.50;14.85;;;;;;;;;;5064963;28;20209;-79
2021/11/21 05:20:07;;;;;;;16.52;13.40;;;;;;;;;;5072561;28;20186;-79
2021/11/21 05:22:34;;;;;;;18.85;13.98;;;;;;;;;;5062505;28;20205;-79
2021/11/21 05:25:01;;;;;;;17.35;13.27;;;;;;;;;;5071305;28;20197;-78
2021/11/21 05:27:28;;;;;;;16.45;12.95;;;;;;;;;;5065600;28;20206;-78
2021/11/21 05:29:56;;;;;;;16.75;12.32;;;;;;;;;;5061443;28;20226;-78
2021/11/21 05:32:23;;;;;;;17.58;13.80;;;;;;;;;;5059338;28;20200;-77
2021/11/21 05:34:52;;;;;;;15.38;12.90;;;;;;;;;;5064730;28;20201;-79
2021/11/21 05:37:19;;;;;;;15.30;13.00;;;;;;;;;;5064485;28;20197;-79
2021/11/21 05:39:46;;;;;;;15.32;12.02;;;;;;;;;;5053382;28;20210;-79
2021/11/21 05:42:13;;;;;;;16.60;13.77;;;;;;;;;;5062470;28;20198;-79
2021/11/21 05:44:40;;;;;;;20.65;15.48;;;;;;;;;;5058814;28;20198;-79
2021/11/21 05:47:09;;;;;;;18.17;13.88;;;;;;;;;;5057803;28;20547;-79
2021/11/21 05:49:36;;;;;;;18.90;14.48;;;;;;;;;;5064408;28;20485;-79
2021/11/21 05:52:03;;;;;;;25.10;16.83;;;;;;;;;;5065539;28;20564;-79
2021/11/21 05:54:30;;;;;;;22.83;17.10;;;;;;;;;;5054451;28;20206;-79
2021/11/21 05:56:57;;;;;;;20.55;14.77;;;;;;;;;;5061016;28;20206;-78
2021/11/21 05:59:24;;;;;;;21.98;15.38;;;;;;;;;;5053599;28;20273;-79
2021/11/21 06:01:51;;;;;;;19.98;14.70;;;;;;;;;;5058731;28;20198;-79
2021/11/21 06:04:19;;;;;;;26.88;16.77;;;;;;;;;;5053770;28;20195;-80
2021/11/21 06:06:46;;;;;;;21.58;16.17;;;;;;;;;;5061964;28;20191;-79
2021/11/21 06:09:13;;;;;;;23.85;17.02;;;;;;;;;;5068097;28;20547;-79
2021/11/21 06:11:41;;;;;;;26.55;18.33;;;;;;;;;;5067250;28;20218;-79
2021/11/21 06:14:08;;;;;;;25.50;18.33;;;;;;;;;;5069131;28;20194;-80
2021/11/21 06:16:35;;;;;;;28.92;21.33;;;;;;;;;;5058435;28;20199;-79
2021/11/21 06:19:02;;;;;;;22.92;15.95;;;;;;;;;;5053878;28;20206;-79
2021/11/21 06:21:30;;;;;;;22.75;15.75;;;;;;;;;;5070712;28;20190;-79
2021/11/21 06:23:57;;;;;;;20.75;16.58;;;;;;;;;;5053966;28;20195;-77
2021/11/21 06:26:24;;;;;;;25.33;17.50;;;;;;;;;;5059939;28;20241;-78
2021/11/21 06:28:51;;;;;;;25.77;16.80;;;;;;;;;;5052726;28;20194;-78
2021/11/21 06:31:18;;;;;;;25.27;17.20;;;;;;;;;;5057246;28;20218;-78
2021/11/21 06:33:46;;;;;;;20.98;17.00;;;;;;;;;;5055101;28;20194;-78
2021/11/21 06:36:13;;;;;;;24.27;16.80;;;;;;;;;;5053126;28;20194;-78
2021/11/21 06:38:41;;;;;;;23.73;17.95;;;;;;;;;;5069537;28;20202;-78
2021/11/21 06:41:08;;;;;;;21.45;17.75;;;;;;;;;;5063851;28;20213;-78
2021/11/21 06:43:35;;;;;;;22.70;16.55;;;;;;;;;;5059144;28;20214;-78
2021/11/21 06:46:03;;;;;;;20.08;16.25;;;;;;;;;;5052034;28;20198;-78
2021/11/21 06:48:30;;;;;;;24.80;15.77;;;;;;;;;;5065645;28;20220;-78
2021/11/21 06:50:57;;;;;;;20.92;15.85;;;;;;;;;;5061302;28;20210;-77
2021/11/21 06:53:24;;;;;;;22.80;16.90;;;;;;;;;;5059497;28;20198;-76
2021/11/21 06:55:52;;;;;;;23.90;16.33;;;;;;;;;;5059864;28;20467;-77
2021/11/21 06:58:20;;;;;;;24.30;17.17;;;;;;;;;;5056692;28;20206;-77
2021/11/21 07:00:47;;;;;;;24.50;16.58;;;;;;;;;;5059802;28;20222;-77
2021/11/21 07:03:14;;;;;;;22.60;17.05;;;;;;;;;;5052704;28;20199;-76
2021/11/21 07:05:41;;;;;;;29.13;18.17;;;;;;;;;;5063272;28;20612;-77
2021/11/21 07:08:08;;;;;;;28.98;19.90;;;;;;;;;;5066426;28;20197;-77
2021/11/21 07:10:35;;;;;;;23.35;18.63;;;;;;;;;;5057800;28;20218;-77
2021/11/21 07:13:04;;;;;;;24.27;18.75;;;;;;;;;;5055220;28;20199;-77
2021/11/21 07:15:31;;;;;;;24.58;16.55;;;;;;;;;;5052773;28;20242;-76
2021/11/21 07:17:58;;;;;;;25.27;17.88;;;;;;;;;;5064575;28;20211;-77
2021/11/21 07:20:25;;;;;;;30.40;19.70;;;;;;;;;;5053162;28;20194;-76
2021/11/21 07:22:53;;;;;;;24.83;17.60;;;;;;;;;;5059027;28;20654;-77
2021/11/21 07:25:21;;;;;;;26.92;18.80;;;;;;;;;;5056367;28;20194;-76
2021/11/21 07:27:49;;;;;;;27.65;18.48;;;;;;;;;;5062020;28;20199;-77
2021/11/21 07:30:18;;;;;;;24.95;18.65;;;;;;;;;;5056858;28;20199;-77
2021/11/21 07:32:46;;;;;;;27.08;17.73;;;;;;;;;;5053257;28;20227;-76
2021/11/21 07:35:14;;;;;;;22.85;15.50;;;;;;;;;;5051762;28;20198;-77
2021/11/21 07:37:41;;;;;;;21.75;16.00;;;;;;;;;;5054979;28;20194;-76
2021/11/21 07:40:12;;;;;;;22.23;18.30;;;;;;;;;;5059403;28;20198;-77
2021/11/21 07:42:39;;;;;;;22.83;16.38;;;;;;;;;;5063439;28;20202;-77
2021/11/21 07:45:06;;;;;;;19.13;15.25;;;;;;;;;;5070125;28;20209;-77
2021/11/21 07:47:35;;;;;;;24.48;15.77;;;;;;;;;;5059762;28;20194;-76
2021/11/21 07:50:02;;;;;;;22.67;16.08;;;;;;;;;;5057404;28;20787;-76
2021/11/21 07:52:29;;;;;;;21.92;15.13;;;;;;;;;;5052901;28;20565;-76
2021/11/21 07:54:56;;;;;;;18.60;13.77;;;;;;;;;;5058413;28;20202;-76
2021/11/21 07:57:23;;;;;;;18.55;13.88;;;;;;;;;;5052130;28;20198;-77
2021/11/21 07:59:50;;;;;;;18.90;14.00;;;;;;;;;;5050529;28;20218;-77
2021/11/21 08:02:17;;;;;;;18.83;15.05;;;;;;;;;;5056670;28;21502;-77
2021/11/21 08:04:46;;;;;;;20.45;15.48;;;;;;;;;;5052779;28;20654;-77
2021/11/21 08:07:14;;;;;;;21.15;16.02;;;;;;;;;;5051368;28;20220;-77
2021/11/21 08:09:41;;;;;;;18.63;16.13;;;;;;;;;;5050905;28;20225;-77
2021/11/21 08:12:09;;;;;;;20.55;14.90;;;;;;;;;;5057418;28;20219;-77
2021/11/21 08:14:38;;;;;;;16.27;13.45;;;;;;;;;;5066419;28;20201;-77
2021/11/21 08:17:05;;;;;;;19.92;13.68;;;;;;;;;;5060155;28;20194;-76
2021/11/21 08:19:32;;;;;;;17.25;12.85;;;;;;;;;;5056818;28;20608;-76
2021/11/21 08:22:00;;;;;;;17.58;13.15;;;;;;;;;;5059641;28;20202;-77
2021/11/21 08:24:27;;;;;;;14.85;12.15;;;;;;;;;;5051637;28;20194;-78
2021/11/21 08:26:55;;;;;;;17.10;13.13;;;;;;;;;;5051299;28;20682;-77
2021/11/21 08:29:22;;;;;;;15.45;12.10;;;;;;;;;;5051238;28;20666;-76
2021/11/21 08:31:50;;;;;;;16.65;13.05;;;;;;;;;;5050723;28;20229;-77
2021/11/21 08:34:17;;;;;;;15.55;12.88;;;;;;;;;;5058750;28;20195;-77
2021/11/21 08:36:44;;;;;;;17.90;13.98;;;;;;;;;;5051592;28;20248;-77
2021/11/21 08:39:13;;;;;;;17.60;13.85;;;;;;;;;;5053778;28;20918;-78
2021/11/21 08:41:40;;;;;;;14.95;12.30;;;;;;;;;;5062249;28;20194;-78
2021/11/21 08:44:07;;;;;;;13.73;11.48;;;;;;;;;;5062423;28;20206;-77
2021/11/21 08:46:34;;;;;;;14.63;11.63;;;;;;;;;;5061701;28;20561;-79
2021/11/21 08:49:01;;;;;;;17.02;11.10;;;;;;;;;;5055374;28;20194;-77
2021/11/21 08:51:28;;;;;;;15.77;13.60;;;;;;;;;;5051741;28;20225;-77
2021/11/21 08:53:55;;;;;;;15.88;12.38;;;;;;;;;;5059450;28;20673;-76
2021/11/21 08:56:24;;;;;;;13.70;11.10;;;;;;;;;;5051278;28;20238;-77
2021/11/21 08:58:52;;;;;;;11.30;9.32;;;;;;;;;;5063032;28;20550;-77
2021/11/21 09:01:20;;;;;;;15.05;11.07;;;;;;;;;;5050781;28;20203;-77
2021/11/21 09:03:47;;;;;;;16.08;12.05;;;;;;;;;;5052180;28;20199;-77
2021/11/21 09:06:14;;;;;;;14.25;10.73;;;;;;;;;;5051740;28;20198;-77
2021/11/21 09:08:41;;;;;;;12.20;9.90;;;;;;;;;;5052683;28;20701;-77
2021/11/21 09:11:08;;;;;;;12.13;9.73;;;;;;;;;;5062649;28;20214;-77
2021/11/21 09:13:37;;;;;;;14.48;9.80;;;;;;;;;;5061555;28;20199;-77
2021/11/21 09:16:05;;;;;;;14.05;10.77;;;;;;;;;;5058462;28;20656;-78
2021/11/21 09:18:32;;;;;;;11.35;10.15;;;;;;;;;;5060689;28;20650;-76
2021/11/21 09:20:59;;;;;;;11.18;9.00;;;;;;;;;;5062286;28;20187;-76
2021/11/21 09:23:26;;;;;;;11.35;9.63;;;;;;;;;;5054404;28;20191;-77
2021/11/21 09:25:54;;;;;;;13.85;10.75;;;;;;;;;;5065440;28;20198;-76
2021/11/21 09:28:21;;;;;;;11.23;9.43;;;;;;;;;;5067783;28;20199;-77
2021/11/21 09:30:50;;;;;;;12.10;9.27;;;;;;;;;;5063024;28;20581;-76
2021/11/21 09:33:17;;;;;;;11.48;10.27;;;;;;;;;;5057476;28;20227;-77
2021/11/21 09:35:45;;;;;;;10.10;8.30;;;;;;;;;;5062938;28;20198;-77
2021/11/21 09:38:12;;;;;;;10.70;9.30;;;;;;;;;;5060350;28;20194;-76
2021/11/21 09:40:39;;;;;;;10.13;9.13;;;;;;;;;;5060072;28;20213;-77
2021/11/21 09:43:06;;;;;;;11.05;9.65;;;;;;;;;;5063428;28;20199;-78
2021/11/21 09:45:33;;;;;;;10.73;9.15;;;;;;;;;;5069929;28;20195;-75
2021/11/21 09:48:04;;;;;;;11.43;9.15;;;;;;;;;;5058266;28;20202;-78
2021/11/21 09:50:36;;;;;;;13.85;9.55;;;;;;;;;;5068417;28;20561;-77
2021/11/21 09:53:04;;;;;;;9.35;7.78;;;;;;;;;;5055613;28;20578;-77
2021/11/21 09:55:31;;;;;;;10.95;9.80;;;;;;;;;;5053771;28;20250;-77
2021/11/21 09:57:58;;;;;;;10.70;8.63;;;;;;;;;;5068803;28;20288;-78
2021/11/21 10:00:30;;;;;;;7.28;6.57;;;;;;;;;;5052978;28;20214;-79
2021/11/21 10:03:02;;;;;;;8.45;6.72;;;;;;;;;;5063202;28;20201;-77
2021/11/21 10:05:32;;;;;;;9.18;8.20;;;;;;;;;;5068150;28;20206;-78
2021/11/21 10:08:03;;;;;;;10.18;8.73;;;;;;;;;;5054966;28;20209;-78
2021/11/21 10:10:35;;;;;;;8.75;7.15;;;;;;;;;;5056469;28;20202;-76
2021/11/21 10:13:02;;;;;;;10.15;8.02;;;;;;;;;;5052868;28;20571;-77
2021/11/21 10:15:29;;;;;;;8.50;7.43;;;;;;;;;;5052333;28;20195;-77
2021/11/21 10:17:57;;;;;;;8.23;6.88;;;;;;;;;;5056789;28;20191;-78
2021/11/21 10:20:24;;;;;;;9.68;7.60;;;;;;;;;;5062987;28;20716;-77
2021/11/21 10:22:55;;;;;;;8.63;6.95;;;;;;;;;;5055080;28;20199;-79
2021/11/21 10:25:41;;;;;;;8.85;7.85;;;;;;;;;;5053479;28;20693;-78
2021/11/21 10:28:10;;;;;;;7.90;7.10;;;;;;;;;;5065895;28;20248;-77
2021/11/21 10:30:56;;;;;;;9.43;7.05;;;;;;;;;;5052569;28;20199;-78
2021/11/21 10:33:26;;;;;;;8.20;7.35;;;;;;;;;;5056776;28;20640;-78
2021/11/21 10:35:54;;;;;;;6.85;5.68;;;;;;;;;;5062654;28;20285;-78
2021/11/21 10:38:23;;;;;;;8.13;6.22;;;;;;;;;;5057955;28;20202;-77
2021/11/21 10:40:54;;;;;;;9.18;7.53;;;;;;;;;;5062787;28;20608;-78
2021/11/21 10:43:21;;;;;;;7.90;7.10;;;;;;;;;;5060421;28;20570;-77
2021/11/21 10:45:50;;;;;;;9.40;7.20;;;;;;;;;;5060577;28;20195;-77
2021/11/21 10:48:24;;;;;;;7.75;6.03;;;;;;;;;;5068248;28;20205;-77
2021/11/21 10:50:51;;;;;;;7.15;6.35;;;;;;;;;;5066477;28;20241;-77
2021/11/21 10:53:19;;;;;;;6.32;5.57;;;;;;;;;;5052212;28;20261;-77
2021/11/21 10:55:47;;;;;;;6.72;5.63;;;;;;;;;;5056639;28;20573;-79
2021/11/21 10:58:15;;;;;;;7.75;6.95;;;;;;;;;;5059733;28;20566;-78
2021/11/21 11:00:42;;;;;;;7.25;6.10;;;;;;;;;;5056087;28;20218;-77
2021/11/21 11:03:16;;;;;;;7.32;6.38;;;;;;;;;;5061827;28;20194;-77
2021/11/21 11:05:43;;;;;;;7.07;6.38;;;;;;;;;;5052782;28;20194;-77
2021/11/21 11:08:13;;;;;;;6.38;5.78;;;;;;;;;;5056821;28;20558;-77
2021/11/21 11:10:40;;;;;;;6.45;5.45;;;;;;;;;;5055890;28;20202;-78
2021/11/21 11:13:11;;;;;;;6.35;5.75;;;;;;;;;;5059795;28;20298;-77
2021/11/21 11:15:40;;;;;;;6.50;5.28;;;;;;;;;;5058918;28;20266;-78
2021/11/21 11:18:07;;;;;;;7.38;5.25;;;;;;;;;;5063169;28;20654;-78
2021/11/21 11:20:41;;;;;;;7.20;5.43;;;;;;;;;;5062497;28;20562;-79
2021/11/21 11:23:09;;;;;;;7.90;5.50;;;;;;;;;;5058101;28;20195;-78
2021/11/21 11:25:38;;;;;;;9.82;5.88;;;;;;;;;;5049257;28;20201;-77
2021/11/21 11:28:11;;;;;;;5.20;4.70;;;;;;;;;;5056210;28;20607;-78
2021/11/21 11:30:39;;;;;;;6.45;5.63;;;;;;;;;;5059557;28;20585;-78
2021/11/21 11:33:08;;;;;;;7.63;6.38;;;;;;;;;;5057772;28;20701;-76
2021/11/21 11:35:36;;;;;;;6.35;5.47;;;;;;;;;;5057038;28;20229;-77
2021/11/21 11:38:10;;;;;;;5.75;4.90;;;;;;;;;;5054137;28;20194;-78
2021/11/21 11:40:42;;;;;;;6.57;5.38;;;;;;;;;;5056760;28;20657;-77
2021/11/21 11:43:31;;;;;;;5.95;5.13;;;;;;;;;;5062356;28;20221;-77
2021/11/21 11:45:59;;;;;;;6.18;5.57;;;;;;;;;;5053152;28;20241;-78
2021/11/21 11:48:37;;;;;;;5.63;4.93;;;;;;;;;;5058080;28;20195;-78
2021/11/21 11:51:05;;;;;;;6.70;5.30;;;;;;;;;;5053237;28;20194;-78
2021/11/21 11:53:37;;;;;;;7.10;5.72;;;;;;;;;;5071373;28;20218;-78
2021/11/21 11:56:12;;;;;;;6.22;5.00;;;;;;;;;;5058665;28;20190;-79
2021/11/21 11:58:47;;;;;;;6.43;4.82;;;;;;;;;;5061080;28;20607;-78
2021/11/21 12:01:14;;;;;;;5.45;4.38;;;;;;;;;;5063520;28;20197;-78
2021/11/21 12:03:42;;;;;;;5.43;4.15;;;;;;;;;;5053284;28;20195;-79
2021/11/21 12:06:10;;;;;;;5.00;4.10;;;;;;;;;;5054946;28;20646;-77
2021/11/21 12:08:42;;;;;;;5.13;4.60;;;;;;;;;;5065916;28;20190;-78
2021/11/21 12:11:09;;;;;;;6.05;4.63;;;;;;;;;;5067543;28;20313;-78
2021/11/21 12:13:36;;;;;;;4.53;4.07;;;;;;;;;;5061096;28;20305;-77
2021/11/21 12:16:06;;;;;;;5.72;4.68;;;;;;;;;;5057326;28;20645;-78
2021/11/21 12:18:53;;;;;;;4.70;3.85;;;;;;;;;;5063074;28;20205;-78
2021/11/21 12:21:44;;;;;;;4.28;3.63;;;;;;;;;;5057375;28;20226;-78
2021/11/21 12:24:24;;;;;;;5.05;4.50;;;;;;;;;;5058733;28;20281;-78
2021/11/21 12:26:52;;;;;;;4.32;3.92;;;;;;;;;;5059001;28;20209;-78
2021/11/21 12:29:25;;;;;;;4.13;3.42;;;;;;;;;;5065767;28;20198;-78
2021/11/21 12:31:54;;;;;;;6.60;4.05;;;;;;;;;;5061417;28;20714;-79
2021/11/21 12:34:39;;;;;;;7.20;4.20;;;;;;;;;;5062792;28;20786;-78
2021/11/21 12:37:13;;;;;;;5.97;4.13;;;;;;;;;;5050642;28;20203;-77
2021/11/21 12:39:41;;;;;;;5.43;3.95;;;;;;;;;;5050758;28;20205;-78
2021/11/21 12:42:10;;;;;;;4.93;3.35;;;;;;;;;;5055463;28;20198;-78
2021/11/21 12:44:37;;;;;;;4.53;3.60;;;;;;;;;;5058774;28;20199;-77
2021/11/21 12:47:07;;;;;;;3.67;3.33;;;;;;;;;;5056588;28;20199;-77
2021/11/21 12:49:34;;;;;;;3.47;3.17;;;;;;;;;;5066348;28;20234;-77
2021/11/21 12:52:09;;;;;;;4.75;3.20;;;;;;;;;;5058674;28;20199;-78
2021/11/21 12:54:37;;;;;;;4.03;3.60;;;;;;;;;;5064352;28;20224;-77
2021/11/21 12:57:05;;;;;;;7.80;3.88;;;;;;;;;;5064559;28;20214;-77
2021/11/21 12:59:49;;;;;;;4.13;3.53;;;;;;;;;;5060450;28;20214;-79
2021/11/21 13:02:19;;;;;;;3.80;2.90;;;;;;;;;;5064071;28;20561;-77
2021/11/21 13:04:47;;;;;;;3.97;2.88;;;;;;;;;;5065364;28;20194;-78
2021/11/21 13:07:32;;;;;;;3.35;2.85;;;;;;;;;;5055301;28;20190;-78
2021/11/21 13:10:08;;;;;;;3.38;3.03;;;;;;;;;;5056289;28;20463;-78
2021/11/21 13:12:36;;;;;;;5.07;2.80;;;;;;;;;;5061110;28;20218;-78
2021/11/21 13:15:04;;;;;;;3.65;2.35;;;;;;;;;;5059276;28;20688;-78
2021/11/21 13:17:33;;;;;;;5.40;3.22;;;;;;;;;;5058992;28;20213;-77
2021/11/21 13:20:01;;;;;;;7.53;3.30;;;;;;;;;;5057829;28;20680;-78
2021/11/21 13:22:42;;;;;;;6.88;2.65;;;;;;;;;;5074458;28;20572;-77
2021/11/21 13:25:09;;;;;;;3.03;2.28;;;;;;;;;;5062446;28;20244;-77
2021/11/21 13:27:37;;;;;;;3.22;2.45;;;;;;;;;;5054551;28;20601;-77
2021/11/21 13:30:10;;;;;;;2.92;2.10;;;;;;;;;;5054126;28;20622;-78
2021/11/21 13:32:38;;;;;;;3.70;2.30;;;;;;;;;;5058600;28;20726;-77
2021/11/21 13:35:17;;;;;;;4.32;2.55;;;;;;;;;;5060198;28;20206;-78
2021/11/21 13:37:44;;;;;;;4.43;2.45;;;;;;;;;;5054030;28;20650;-77
2021/11/21 13:40:12;;;;;;;7.40;2.20;;;;;;;;;;5059232;28;20203;-78
2021/11/21 13:42:39;;;;;;;4.10;2.42;;;;;;;;;;5064813;28;20195;-77
2021/11/21 13:45:06;;;;;;;3.63;2.08;;;;;;;;;;5064354;28;20203;-77
2021/11/21 13:47:33;;;;;;;5.38;2.97;;;;;;;;;;5058216;28;20565;-77
2021/11/21 13:50:02;;;;;;;2.95;2.08;;;;;;;;;;5067807;28;20645;-78
2021/11/21 13:52:31;;;;;;;6.15;2.05;;;;;;;;;;5056999;28;20222;-78
2021/11/21 13:54:59;;;;;;;3.00;2.13;;;;;;;;;;5059365;28;20293;-77
2021/11/21 13:57:28;;;;;;;3.33;1.70;;;;;;;;;;5063442;28;20677;-77
2021/11/21 13:59:56;;;;;;;2.45;2.08;;;;;;;;;;5064034;28;20762;-77
2021/11/21 14:02:30;;;;;;;4.93;2.20;;;;;;;;;;5066148;28;20222;-77
2021/11/21 14:04:58;;;;;;;4.45;2.00;;;;;;;;;;5052180;28;20214;-77
2021/11/21 14:07:26;;;;;;;2.83;2.30;;;;;;;;;;5052058;28;20241;-78
2021/11/21 14:09:55;;;;;;;4.10;1.67;;;;;;;;;;5058110;28;20599;-77
2021/11/21 14:12:23;;;;;;;3.08;1.77;;;;;;;;;;5060525;28;20684;-78
2021/11/21 14:15:11;;;;;;;3.00;2.05;;;;;;;;;;5055062;28;20211;-77
2021/11/21 14:17:40;;;;;;;2.80;2.20;;;;;;;;;;5066457;28;20202;-78
2021/11/21 14:20:08;;;;;;;4.32;3.38;;;;;;;;;;5062587;28;20195;-76
2021/11/21 14:22:39;;;;;;;2.95;2.42;;;;;;;;;;5073804;28;20245;-75
2021/11/21 14:25:06;;;;;;;4.60;2.10;;;;;;;;;;5072102;28;20209;-79
2021/11/21 14:27:43;;;;;;;2.22;1.65;;;;;;;;;;5066921;28;20256;-76
2021/11/21 14:30:11;;;;;;;3.20;1.80;;;;;;;;;;5054056;28;20206;-77
2021/11/21 14:32:43;;;;;;;3.50;1.42;;;;;;;;;;5056380;28;20704;-80